createdAt,value
2019-03-20T00:01:18.400Z,-21452.16
2019-03-20T00:03:46.674Z,-21449.36
2019-03-20T00:06:14.948Z,-21454.55
2019-03-20T00:08:43.210Z,-21419.45
2019-03-20T00:11:11.466Z,-21430.55
2019-03-20T00:13:39.813Z,-21435.04
2019-03-20T00:16:08.060Z,-21426.90
2019-03-20T00:18:36.313Z,-21432.23
2019-03-20T00:21:04.656Z,-21432.09
2019-03-20T00:23:32.933Z,-21443.18
2019-03-20T00:26:01.189Z,-21431.54
2019-03-20T00:28:29.468Z,-21433.08
2019-03-20T00:30:57.720Z,-21427.88
2019-03-20T00:33:25.975Z,-21416.64
2019-03-20T00:35:55.096Z,-21408.63
2019-03-20T00:38:23.345Z,-21414.39
2019-03-20T00:40:51.623Z,-21391.76
2019-03-20T00:43:19.879Z,-21422.27
2019-03-20T00:45:48.146Z,-21434.20
2019-03-20T00:48:16.396Z,-21439.25
2019-03-20T00:50:44.716Z,-21445.71
2019-03-20T00:53:13.001Z,-21447.95
2019-03-20T00:55:41.266Z,-21421.84
2019-03-20T00:58:09.531Z,-21429.14
2019-03-20T01:00:37.785Z,-21400.90
2019-03-20T01:03:06.312Z,-21370.64
2019-03-20T01:05:34.589Z,-21429.29
2019-03-20T01:08:02.836Z,-21477.67
2019-03-20T01:10:31.105Z,-21488.74
2019-03-20T01:12:59.371Z,-21479.21
2019-03-20T01:15:27.624Z,-21462.40
2019-03-20T01:17:55.871Z,-21479.91
2019-03-20T01:20:24.618Z,-21493.07
2019-03-20T01:22:52.943Z,-21471.79
2019-03-20T01:25:21.650Z,-21460.02
2019-03-20T01:27:49.989Z,-21488.04
2019-03-20T01:30:36.572Z,-21498.11
2019-03-20T01:33:12.556Z,-21497.55
2019-03-20T01:35:41.158Z,-21484.25
2019-03-20T01:38:10.242Z,-21489.86
2019-03-20T01:40:40.386Z,-21384.58
2019-03-20T01:43:08.632Z,-21356.99
2019-03-20T01:45:36.882Z,-21415.52
2019-03-20T01:48:05.416Z,-21418.19
2019-03-20T01:50:33.668Z,-21424.23
2019-03-20T01:53:01.936Z,-21437.71
2019-03-20T01:55:30.187Z,-21427.18
2019-03-20T01:57:58.476Z,-21415.09
2019-03-20T02:00:26.814Z,-21421.43
2019-03-20T02:02:55.083Z,-21405.54
2019-03-20T02:05:34.651Z,-21405.54
2019-03-20T02:07:53.405Z,-21432.79
2019-03-20T02:10:21.675Z,-21456.09
2019-03-20T02:12:49.933Z,-21461.42
2019-03-20T02:15:19.144Z,-21425.50
2019-03-20T02:17:47.409Z,-21403.71
2019-03-20T02:20:19.549Z,-21394.01
2019-03-20T02:22:47.815Z,-21337.39
2019-03-20T02:25:16.247Z,-21394.29
2019-03-20T02:27:44.780Z,-21361.35
2019-03-20T02:30:15.778Z,-21380.78
2019-03-20T02:32:44.534Z,-21402.03
2019-03-20T02:35:13.174Z,-21407.37
2019-03-20T02:37:41.426Z,-21412.43
2019-03-20T02:40:12.703Z,-21412.29
2019-03-20T02:42:40.978Z,-21369.24
2019-03-20T02:45:11.783Z,-21396.68
2019-03-20T02:47:40.108Z,-21389.93
2019-03-20T02:50:10.232Z,-21406.10
2019-03-20T02:52:38.502Z,-21378.53
2019-03-20T02:55:08.988Z,-21409.61
2019-03-20T02:57:37.262Z,-21400.48
2019-03-20T03:00:08.823Z,-21411.30
2019-03-20T03:02:37.098Z,-21427.60
2019-03-20T03:05:06.800Z,-21449.78
2019-03-20T03:07:35.082Z,-21425.21
2019-03-20T03:10:04.601Z,-21421.43
2019-03-20T03:12:32.864Z,-21422.69
2019-03-20T03:15:01.120Z,-21400.20
2019-03-20T03:17:29.382Z,-21392.46
2019-03-20T03:19:57.665Z,-21412.71
2019-03-20T03:22:25.933Z,-21384.02
2019-03-20T03:24:54.203Z,-21397.67
2019-03-20T03:27:22.461Z,-21404.00
2019-03-20T03:29:50.728Z,-21332.73
2019-03-20T03:32:19.050Z,-21338.94
2019-03-20T03:34:47.325Z,-21380.50
2019-03-20T03:37:15.604Z,-21380.22
2019-03-20T03:39:43.871Z,-21387.39
2019-03-20T03:42:12.193Z,-21400.63
2019-03-20T03:44:40.457Z,-21392.60
2019-03-20T03:47:08.726Z,-21401.75
2019-03-20T03:49:36.997Z,-21330.48
2019-03-20T03:52:05.258Z,-21330.90
2019-03-20T03:54:33.540Z,-21317.36
2019-03-20T03:57:01.869Z,-21372.77
2019-03-20T03:59:30.118Z,-21367.13
2019-03-20T04:01:58.552Z,-21375.71
2019-03-20T04:04:26.779Z,-21310.72
2019-03-20T04:06:55.073Z,-21322.44
2019-03-20T04:09:23.355Z,-21341.90
2019-03-20T04:11:51.635Z,-21374.59
2019-03-20T04:14:19.881Z,-21384.58
2019-03-20T04:16:48.135Z,-21398.23
2019-03-20T04:19:16.413Z,-21372.06
2019-03-20T04:21:44.660Z,-21374.17
2019-03-20T04:24:12.931Z,-21325.82
2019-03-20T04:26:41.194Z,-21379.38
2019-03-20T04:29:09.461Z,-21385.01
2019-03-20T04:31:37.706Z,-21403.01
2019-03-20T04:34:05.974Z,-21400.63
2019-03-20T04:36:34.221Z,-21409.76
2019-03-20T04:39:02.495Z,-21405.54
2019-03-20T04:41:30.771Z,-21385.01
2019-03-20T04:43:59.040Z,-21404.42
2019-03-20T04:46:27.287Z,-21402.59
2019-03-20T04:48:55.567Z,-21358.68
2019-03-20T04:51:23.867Z,-21388.10
2019-03-20T04:53:52.141Z,-21382.61
2019-03-20T04:56:20.422Z,-21371.35
2019-03-20T04:58:48.684Z,-21373.04
2019-03-20T05:01:16.930Z,-21368.96
2019-03-20T05:03:45.202Z,-21376.85
2019-03-20T05:06:13.458Z,-21392.88
2019-03-20T05:08:41.736Z,-21376.00
2019-03-20T05:11:09.980Z,-21355.71
2019-03-20T05:13:38.244Z,-21406.81
2019-03-20T05:16:06.499Z,-21407.93
2019-03-20T05:18:34.765Z,-21409.05
2019-03-20T05:21:03.011Z,-21392.32
2019-03-20T05:23:31.306Z,-21383.32
2019-03-20T05:25:59.579Z,-21356.00
2019-03-20T05:28:27.845Z,-21339.08
2019-03-20T05:30:56.122Z,-21341.62
2019-03-20T05:33:24.388Z,-21328.22
2019-03-20T05:35:52.661Z,-21339.93
2019-03-20T05:38:20.941Z,-21324.70
2019-03-20T05:40:49.193Z,-21338.24
2019-03-20T05:43:17.495Z,-21318.20
2019-03-20T05:45:45.829Z,-21319.90
2019-03-20T05:48:14.116Z,-21300.13
2019-03-20T05:50:42.372Z,-21348.25
2019-03-20T05:53:10.668Z,-21343.87
2019-03-20T05:55:38.929Z,-21354.59
2019-03-20T05:58:07.184Z,-21361.07
2019-03-20T06:00:36.215Z,-21357.55
2019-03-20T06:03:04.559Z,-21385.57
2019-03-20T06:05:32.836Z,-21390.07
2019-03-20T06:08:01.102Z,-21395.70
2019-03-20T06:10:29.370Z,-21376.56
2019-03-20T06:12:57.632Z,-21378.82
2019-03-20T06:15:25.895Z,-21402.03
2019-03-20T06:17:54.171Z,-21386.41
2019-03-20T06:20:22.429Z,-21348.67
2019-03-20T06:22:50.687Z,-21404.42
2019-03-20T06:25:21.327Z,-21376.70
2019-03-20T06:27:48.965Z,-21381.63
2019-03-20T06:30:18.281Z,-21353.18
2019-03-20T06:32:46.540Z,-21383.74
2019-03-20T06:35:14.885Z,-21376.70
2019-03-20T06:37:43.306Z,-21367.69
2019-03-20T06:40:16.425Z,-21379.94
2019-03-20T06:42:44.687Z,-21388.24
2019-03-20T06:45:18.111Z,-21399.21
2019-03-20T06:47:46.382Z,-21380.22
2019-03-20T06:50:22.119Z,-21383.32
2019-03-20T06:52:50.379Z,-21344.72
2019-03-20T06:55:18.628Z,-21381.49
2019-03-20T06:57:46.961Z,-21411.30
2019-03-20T07:00:18.413Z,-21353.18
2019-03-20T07:02:47.778Z,-21363.18
2019-03-20T07:05:47.019Z,-21349.23
2019-03-20T07:08:15.405Z,-21367.83
2019-03-20T07:10:55.929Z,-21376.56
2019-03-20T07:13:24.206Z,-21379.66
2019-03-20T07:15:52.489Z,-21380.36
2019-03-20T07:18:20.776Z,-21381.49
2019-03-20T07:20:49.021Z,-21365.72
2019-03-20T07:23:17.431Z,-21346.98
2019-03-20T07:25:45.681Z,-21390.35
2019-03-20T07:28:13.981Z,-21356.70
2019-03-20T07:30:42.259Z,-21363.89
2019-03-20T07:33:10.544Z,-21396.40
2019-03-20T07:35:38.803Z,-21395.13
2019-03-20T07:38:07.081Z,-21343.45
2019-03-20T07:40:35.379Z,-21346.84
2019-03-20T07:43:08.799Z,-21384.58
2019-03-20T07:45:33.685Z,-21444.87
2019-03-20T07:48:01.967Z,-21440.66
2019-03-20T07:50:30.241Z,-21406.25
2019-03-20T07:52:58.525Z,-21383.60
2019-03-20T07:55:26.787Z,-21423.81
2019-03-20T07:57:55.056Z,-21438.27
2019-03-20T08:00:23.334Z,-21432.09
2019-03-20T08:02:51.610Z,-21432.79
2019-03-20T08:05:28.832Z,-21408.77
2019-03-20T08:07:49.903Z,-21427.74
2019-03-20T08:10:19.602Z,-21426.90
2019-03-20T08:12:47.881Z,-21429.71
2019-03-20T08:15:16.989Z,-21416.22
2019-03-20T08:17:45.339Z,-21387.39
2019-03-20T08:20:22.046Z,-21413.69
2019-03-20T08:22:50.394Z,-21460.86
2019-03-20T08:25:18.661Z,-21456.65
2019-03-20T08:27:46.932Z,-21442.05
2019-03-20T08:30:19.983Z,-21422.69
2019-03-20T08:32:48.244Z,-21442.34
2019-03-20T08:35:16.509Z,-21441.78
2019-03-20T08:37:44.790Z,-21430.55
2019-03-20T08:40:17.086Z,-21417.48
2019-03-20T08:42:45.451Z,-21458.47
2019-03-20T08:45:19.107Z,-21462.25
2019-03-20T08:47:47.542Z,-21419.03
2019-03-20T08:50:23.026Z,-21470.67
2019-03-20T08:52:51.275Z,-21450.48
2019-03-20T08:55:20.591Z,-21457.63
2019-03-20T08:57:48.919Z,-21461.27
2019-03-20T09:00:22.205Z,-21454.55
2019-03-20T09:02:50.604Z,-21465.90
2019-03-20T09:05:18.942Z,-21460.29
2019-03-20T09:07:47.807Z,-21457.91
2019-03-20T09:10:20.868Z,-21462.40
2019-03-20T09:12:49.291Z,-21456.93
2019-03-20T09:15:18.635Z,-21482.71
2019-03-20T09:17:46.918Z,-21502.31
2019-03-20T09:20:18.652Z,-21515.04
2019-03-20T09:22:47.095Z,-21530.14
2019-03-20T09:25:16.971Z,-21499.65
2019-03-20T09:27:45.427Z,-21516.86
2019-03-20T09:30:16.512Z,-21483.70
2019-03-20T09:32:44.777Z,-21490.28
2019-03-20T09:35:13.118Z,-21478.79
2019-03-20T09:37:51.260Z,-21519.09
2019-03-20T09:40:15.992Z,-21521.33
2019-03-20T09:42:44.343Z,-21521.33
2019-03-20T09:45:17.534Z,-21500.36
2019-03-20T09:47:45.898Z,-21510.85
2019-03-20T09:50:18.595Z,-21515.46
2019-03-20T09:52:46.929Z,-21497.55
2019-03-20T09:55:15.957Z,-21548.01
2019-03-20T09:57:44.646Z,-21492.80
2019-03-20T10:00:29.094Z,-21528.18
2019-03-20T10:02:57.356Z,-21514.48
2019-03-20T10:05:25.710Z,-21568.25
2019-03-20T10:07:54.016Z,-21571.17
2019-03-20T10:10:27.046Z,-21570.75
2019-03-20T10:12:55.356Z,-21537.26
2019-03-20T10:15:31.318Z,-21529.44
2019-03-20T10:17:59.671Z,-21556.80
2019-03-20T10:20:28.177Z,-21564.05
2019-03-20T10:22:56.539Z,-21556.25
2019-03-20T10:25:24.872Z,-21540.47
2019-03-20T10:27:53.155Z,-21590.54
2019-03-20T10:30:28.199Z,-21614.75
2019-03-20T10:32:56.466Z,-21550.80
2019-03-20T10:35:24.878Z,-21519.52
2019-03-20T10:37:53.244Z,-21547.17
2019-03-20T10:40:22.325Z,-21556.10
2019-03-20T10:42:50.845Z,-21606.69
2019-03-20T10:45:20.356Z,-21607.94
2019-03-20T10:47:49.165Z,-21529.44
2019-03-20T10:50:30.431Z,-21546.89
2019-03-20T10:52:58.708Z,-21523.57
2019-03-20T10:55:27.006Z,-21582.18
2019-03-20T10:57:55.334Z,-21603.63
2019-03-20T11:00:24.742Z,-21599.86
2019-03-20T11:02:53.022Z,-21592.21
2019-03-20T11:05:21.349Z,-21545.50
2019-03-20T11:07:49.693Z,-21596.80
2019-03-20T11:10:27.749Z,-21550.11
2019-03-20T11:12:56.117Z,-21584.83
2019-03-20T11:15:25.415Z,-21560.15
2019-03-20T11:17:53.689Z,-21597.77
2019-03-20T11:20:22.805Z,-21623.93
2019-03-20T11:22:51.148Z,-21642.96
2019-03-20T11:25:21.279Z,-21634.91
2019-03-20T11:27:49.545Z,-21637.55
2019-03-20T11:30:20.486Z,-21632.13
2019-03-20T11:32:48.732Z,-21612.11
2019-03-20T11:35:17.002Z,-21612.67
2019-03-20T11:37:45.338Z,-21651.43
2019-03-20T11:40:33.779Z,-21606.96
2019-03-20T11:43:02.184Z,-21603.07
2019-03-20T11:45:30.591Z,-21648.11
2019-03-20T11:47:58.967Z,-21635.05
2019-03-20T11:50:29.541Z,-21625.32
2019-03-20T11:52:57.788Z,-21653.93
2019-03-20T11:55:26.131Z,-21643.38
2019-03-20T11:57:54.425Z,-21686.52
2019-03-20T12:00:24.142Z,-21724.02
2019-03-20T12:02:52.382Z,-21729.82
2019-03-20T12:05:20.715Z,-21703.55
2019-03-20T12:07:49.063Z,-21681.12
2019-03-20T12:10:20.341Z,-21745.86
2019-03-20T12:12:48.677Z,-21758.68
2019-03-20T12:15:17.016Z,-21759.37
2019-03-20T12:17:45.357Z,-21791.90
2019-03-20T12:20:16.792Z,-21792.45
2019-03-20T12:22:45.705Z,-21834.80
2019-03-20T12:25:19.579Z,-21819.68
2019-03-20T12:27:48.002Z,-21828.75
2019-03-20T12:30:21.528Z,-21793.00
2019-03-20T12:32:49.871Z,-21796.02
2019-03-20T12:35:19.190Z,-21814.32
2019-03-20T12:37:47.463Z,-21834.52
2019-03-20T12:40:18.668Z,-21763.93
2019-03-20T12:42:46.999Z,-21767.10
2019-03-20T12:45:18.707Z,-21808.14
2019-03-20T12:47:46.972Z,-21875.53
2019-03-20T12:50:15.334Z,-21905.77
2019-03-20T12:52:43.625Z,-21894.83
2019-03-20T12:55:14.322Z,-21877.58
2019-03-20T12:57:42.645Z,-21849.62
2019-03-20T13:00:27.401Z,-21874.84
2019-03-20T13:02:55.565Z,-21836.17
2019-03-20T13:05:23.836Z,-21918.48
2019-03-20T13:07:52.151Z,-21900.03
2019-03-20T13:10:24.600Z,-21964.70
2019-03-20T13:12:52.891Z,-21913.83
2019-03-20T13:15:22.598Z,-21789.15
2019-03-20T13:17:51.302Z,-21834.93
2019-03-20T13:20:19.731Z,-21909.59
2019-03-20T13:22:51.008Z,-21924.48
2019-03-20T13:25:19.387Z,-21883.88
2019-03-20T13:27:47.643Z,-21965.12
2019-03-20T13:30:21.690Z,-21907.41
2019-03-20T13:32:50.037Z,-21831.09
2019-03-20T13:35:18.309Z,-21892.64
2019-03-20T13:37:46.661Z,-21902.07
2019-03-20T13:40:15.090Z,-21929.81
2019-03-20T13:42:43.547Z,-21888.81
2019-03-20T13:45:20.988Z,-21968.39
2019-03-20T13:47:49.248Z,-21994.63
2019-03-20T13:50:17.591Z,-21977.37
2019-03-20T13:52:45.947Z,-21970.70
2019-03-20T13:55:15.869Z,-21982.39
2019-03-20T13:57:44.214Z,-21942.63
2019-03-20T14:00:20.393Z,-21908.91
2019-03-20T14:02:48.656Z,-21924.62
2019-03-20T14:05:16.921Z,-21977.50
2019-03-20T14:07:47.063Z,-22012.02
2019-03-20T14:10:25.660Z,-22007.54
2019-03-20T14:12:54.152Z,-22016.36
2019-03-20T14:15:22.590Z,-21977.37
2019-03-20T14:17:50.890Z,-22020.15
2019-03-20T14:20:26.829Z,-21998.57
2019-03-20T14:22:55.097Z,-21897.84
2019-03-20T14:25:23.443Z,-21906.04
2019-03-20T14:27:52.552Z,-21888.53
2019-03-20T14:30:28.098Z,-21943.72
2019-03-20T14:32:56.541Z,-22003.20
2019-03-20T14:35:24.897Z,-21946.73
2019-03-20T14:37:53.439Z,-21912.33
2019-03-20T14:40:34.880Z,-21856.62
2019-03-20T14:43:00.908Z,-21845.92
2019-03-20T14:45:29.135Z,-21893.05
2019-03-20T14:47:57.386Z,-21880.18
2019-03-20T14:50:29.718Z,-21916.15
2019-03-20T14:52:57.983Z,-21937.31
2019-03-20T14:55:26.433Z,-21977.37
2019-03-20T14:57:56.341Z,-22013.92
2019-03-20T15:00:28.650Z,-21970.70
2019-03-20T15:02:56.993Z,-22027.07
2019-03-20T15:05:25.608Z,-21998.43
2019-03-20T15:07:53.924Z,-21943.45
2019-03-20T15:10:23.616Z,-21972.60
2019-03-20T15:12:52.733Z,-22046.99
2019-03-20T15:15:33.252Z,-22034.66
2019-03-20T15:18:01.543Z,-22017.85
2019-03-20T15:20:29.828Z,-22040.90
2019-03-20T15:22:58.131Z,-22028.29
2019-03-20T15:25:26.446Z,-22032.23
2019-03-20T15:27:54.708Z,-21959.67
2019-03-20T15:30:24.355Z,-21998.43
2019-03-20T15:32:52.793Z,-22030.06
2019-03-20T15:35:21.162Z,-21958.99
2019-03-20T15:37:49.422Z,-21969.06
2019-03-20T15:40:20.273Z,-22002.24
2019-03-20T15:42:48.635Z,-21986.88
2019-03-20T15:45:17.849Z,-21942.77
2019-03-20T15:47:46.247Z,-22020.84
2019-03-20T15:50:18.550Z,-21977.91
2019-03-20T15:52:46.819Z,-21985.39
2019-03-20T15:55:23.870Z,-21977.91
2019-03-20T15:57:52.213Z,-21958.58
2019-03-20T16:00:21.643Z,-21977.50
2019-03-20T16:02:55.702Z,-22028.29
2019-03-20T16:05:23.999Z,-21990.56
2019-03-20T16:07:52.295Z,-21991.10
2019-03-20T16:10:22.562Z,-22009.71
2019-03-20T16:12:51.058Z,-21984.43
2019-03-20T16:15:24.254Z,-22014.19
2019-03-20T16:17:53.027Z,-21975.46
2019-03-20T16:20:21.321Z,-21941.40
2019-03-20T16:22:49.589Z,-21876.76
2019-03-20T16:25:22.110Z,-21959.39
2019-03-20T16:27:50.366Z,-21945.77
2019-03-20T16:30:27.059Z,-21957.49
2019-03-20T16:32:56.454Z,-21927.35
2019-03-20T16:35:25.109Z,-21923.94
2019-03-20T16:37:53.375Z,-21907.68
2019-03-20T16:40:29.454Z,-21936.63
2019-03-20T16:42:57.882Z,-21937.86
2019-03-20T16:45:36.761Z,-21961.57
2019-03-20T16:48:05.989Z,-21853.32
2019-03-20T16:50:34.249Z,-21842.90
2019-03-20T16:53:02.595Z,-21844.82
2019-03-20T16:55:30.979Z,-21839.88
2019-03-20T16:57:59.347Z,-21822.98
2019-03-20T17:00:32.439Z,-21723.61
2019-03-20T17:03:00.794Z,-21706.87
2019-03-20T17:05:30.202Z,-21730.52
2019-03-20T17:07:58.537Z,-21718.91
2019-03-20T17:10:38.392Z,-21713.92
2019-03-20T17:13:06.833Z,-21687.77
2019-03-20T17:15:45.335Z,-21682.64
2019-03-20T17:18:21.601Z,-21684.58
2019-03-20T17:20:59.308Z,-21688.60
2019-03-20T17:23:27.689Z,-21716.70
2019-03-20T17:25:55.953Z,-21700.50
2019-03-20T17:28:24.234Z,-21712.82
2019-03-20T17:30:53.327Z,-21725.96
2019-03-20T17:33:21.596Z,-21725.96
2019-03-20T17:35:49.878Z,-21702.72
2019-03-20T17:38:18.188Z,-21717.66
2019-03-20T17:40:46.476Z,-21704.66
2019-03-20T17:43:14.768Z,-21716.56
2019-03-20T17:45:43.027Z,-21702.45
2019-03-20T17:48:11.365Z,-21735.21
2019-03-20T17:50:39.665Z,-21691.92
2019-03-20T17:53:07.930Z,-21690.54
2019-03-20T17:55:36.208Z,-21677.52
2019-03-20T17:58:05.133Z,-21699.39
2019-03-20T18:00:37.958Z,-21688.32
2019-03-20T18:03:07.011Z,-21693.86
2019-03-20T18:05:35.356Z,-21667.25
2019-03-20T18:08:04.885Z,-21660.87
2019-03-20T18:10:33.379Z,-21682.22
2019-03-20T18:13:01.809Z,-21678.07
2019-03-20T18:15:30.109Z,-21676.96
2019-03-20T18:17:58.405Z,-21689.02
2019-03-20T18:20:26.731Z,-21691.09
2019-03-20T18:22:55.000Z,-21657.55
2019-03-20T18:25:23.257Z,-21652.27
2019-03-20T18:27:51.595Z,-21624.63
2019-03-20T18:30:22.260Z,-21670.59
2019-03-20T18:32:50.568Z,-21679.73
2019-03-20T18:35:18.905Z,-21669.89
2019-03-20T18:37:47.350Z,-21660.87
2019-03-20T18:40:17.493Z,-21662.81
2019-03-20T18:42:46.130Z,-21648.38
2019-03-20T18:45:17.437Z,-21635.46
2019-03-20T18:47:45.714Z,-21633.38
2019-03-20T18:50:16.237Z,-21634.91
2019-03-20T18:52:44.526Z,-21638.66
2019-03-20T18:55:15.045Z,-21637.55
2019-03-20T18:57:43.395Z,-21658.65
2019-03-20T19:00:14.758Z,-21659.21
2019-03-20T19:02:43.101Z,-21645.19
2019-03-20T19:05:14.574Z,-21631.43
2019-03-20T19:07:42.838Z,-21598.19
2019-03-20T19:10:11.793Z,-21614.20
2019-03-20T19:12:40.182Z,-21635.19
2019-03-20T19:15:10.900Z,-21641.16
2019-03-20T19:17:39.266Z,-21667.39
2019-03-20T19:20:16.818Z,-21657.55
2019-03-20T19:22:45.149Z,-21642.55
2019-03-20T19:25:17.566Z,-21632.13
2019-03-20T19:27:45.930Z,-21611.97
2019-03-20T19:30:21.849Z,-21603.34
2019-03-20T19:32:50.123Z,-21593.32
2019-03-20T19:35:18.403Z,-21586.22
2019-03-20T19:37:46.724Z,-21593.32
2019-03-20T19:40:16.853Z,-21600.98
2019-03-20T19:42:45.117Z,-21575.07
2019-03-20T19:45:14.834Z,-21589.01
2019-03-20T19:47:43.108Z,-21590.12
2019-03-20T19:50:16.536Z,-21579.11
2019-03-20T19:52:44.800Z,-21589.84
2019-03-20T19:55:14.824Z,-21593.60
2019-03-20T19:57:43.106Z,-21592.63
2019-03-20T20:00:17.531Z,-21575.21
2019-03-20T20:02:45.895Z,-21582.32
2019-03-20T20:05:15.906Z,-21545.64
2019-03-20T20:07:44.763Z,-21576.33
2019-03-20T20:10:17.506Z,-21569.91
2019-03-20T20:12:45.932Z,-21563.50
2019-03-20T20:15:23.446Z,-21581.75
2019-03-20T20:17:52.100Z,-21589.28
2019-03-20T20:20:22.890Z,-21600.56
2019-03-20T20:22:51.151Z,-21589.56
2019-03-20T20:25:19.430Z,-21586.92
2019-03-20T20:27:47.725Z,-21579.11
2019-03-20T20:30:19.789Z,-21584.41
2019-03-20T20:32:48.139Z,-21575.63
2019-03-20T20:35:17.264Z,-21571.03
2019-03-20T20:37:46.302Z,-21579.67
2019-03-20T20:40:20.073Z,-21581.34
2019-03-20T20:42:48.330Z,-21554.29
2019-03-20T20:45:16.645Z,-21599.72
2019-03-20T20:47:44.934Z,-21580.78
2019-03-20T20:50:14.443Z,-21522.17
2019-03-20T20:52:42.866Z,-21561.12
2019-03-20T20:55:15.857Z,-21583.15
2019-03-20T20:57:44.170Z,-21598.61
2019-03-20T21:00:17.317Z,-21555.96
2019-03-20T21:02:45.608Z,-21580.92
2019-03-20T21:05:13.881Z,-21583.29
2019-03-20T21:07:42.180Z,-21581.75
2019-03-20T21:10:15.417Z,-21568.52
2019-03-20T21:12:55.202Z,-21537.68
2019-03-20T21:15:37.648Z,-21559.59
2019-03-20T21:18:15.242Z,-21560.99
2019-03-20T21:20:44.142Z,-21542.15
2019-03-20T21:23:37.978Z,-21553.73
2019-03-20T21:26:24.337Z,-21545.07
2019-03-20T21:29:12.014Z,-21553.73
2019-03-20T21:31:43.590Z,-21567.12
2019-03-20T21:34:48.056Z,-21572.29
2019-03-20T21:37:28.520Z,-21573.82
2019-03-20T21:39:56.799Z,-21562.94
2019-03-20T21:42:34.298Z,-21569.91
2019-03-20T21:45:26.925Z,-21521.33
2019-03-20T21:47:55.229Z,-21530.00
2019-03-20T21:50:54.071Z,-21550.80
2019-03-20T21:53:46.641Z,-21553.59
2019-03-20T21:56:18.117Z,-21571.31
2019-03-20T21:59:07.728Z,-21573.40
2019-03-20T22:01:48.235Z,-21510.71
2019-03-20T22:04:16.536Z,-21555.55
2019-03-20T22:07:08.480Z,-21571.45
2019-03-20T22:09:52.190Z,-21551.64
2019-03-20T22:12:26.348Z,-21553.45
2019-03-20T22:15:00.349Z,-21554.16
2019-03-20T22:17:51.710Z,-21550.80
2019-03-20T22:20:29.338Z,-21551.92
2019-03-20T22:23:19.799Z,-21566.57
2019-03-20T22:25:54.171Z,-21560.85
2019-03-20T22:28:25.602Z,-21547.03
2019-03-20T22:30:53.881Z,-21509.87
2019-03-20T22:33:58.895Z,-21548.01
2019-03-20T22:36:27.545Z,-21551.78
2019-03-20T22:39:14.015Z,-21485.51
2019-03-20T22:42:03.656Z,-21532.65
2019-03-20T22:44:32.453Z,-21530.84
2019-03-20T22:47:15.748Z,-21515.18
2019-03-20T22:49:55.749Z,-21545.78
2019-03-20T22:52:33.022Z,-21547.45
2019-03-20T22:55:30.334Z,-21540.89
2019-03-20T22:58:16.753Z,-21544.80
2019-03-20T23:00:48.209Z,-21534.75
2019-03-20T23:03:22.449Z,-21539.64
2019-03-20T23:05:50.741Z,-21548.99
2019-03-20T23:08:18.997Z,-21529.72
2019-03-20T23:10:50.218Z,-21590.40
2019-03-20T23:13:19.459Z,-21562.66
2019-03-20T23:15:48.704Z,-21544.80
2019-03-20T23:18:17.028Z,-21581.75
2019-03-20T23:20:45.292Z,-21575.63
2019-03-20T23:23:13.558Z,-21587.61
2019-03-20T23:25:41.822Z,-21563.63
2019-03-20T23:28:10.097Z,-21524.68
2019-03-20T23:30:38.359Z,-21493.07
2019-03-20T23:33:06.631Z,-21543.13
2019-03-20T23:35:34.894Z,-21478.65
2019-03-20T23:38:03.227Z,-21538.10
2019-03-20T23:40:31.493Z,-21540.89
2019-03-20T23:43:13.614Z,-21525.52
2019-03-20T23:45:42.020Z,-21553.59
2019-03-20T23:48:13.461Z,-21562.52
2019-03-20T23:50:42.129Z,-21560.29
2019-03-20T23:53:10.419Z,-21542.98
2019-03-20T23:55:38.741Z,-21564.34
2019-03-20T23:58:07.018Z,-21579.11
